Time;durP1;ratioP1;P1;durP2;ratioP2;P2;SDS_P1;SDS_P2;PMS_P1;PMS_P2;Temp;Humidity;BMP_temperature;BMP_pressure;BME280_temperature;BME280_humidity;BME280_pressure;Samples;Min_cycle;Max_cycle;Signal;HPM_P1;HPM_P2
2022/04/09 00:00:31;;;;;;;9.73;4.60;;;5.50;87.10;;;;;;5048425;28;20177;-67
2022/04/09 00:02:57;;;;;;;8.30;4.20;;;5.50;86.80;;;;;;5048615;28;20025;-66
2022/04/09 00:05:23;;;;;;;8.20;4.47;;;5.50;87.00;;;;;;5042188;28;20033;-67
2022/04/09 00:07:48;;;;;;;9.13;4.60;;;5.50;87.20;;;;;;5047053;28;20041;-67
2022/04/09 00:10:14;;;;;;;6.10;4.55;;;5.50;87.40;;;;;;5053408;28;20044;-66
2022/04/09 00:12:44;;;;;;;8.35;4.28;;;5.50;87.10;;;;;;5052901;28;20025;-68
2022/04/09 00:15:10;;;;;;;6.55;4.55;;;5.40;87.00;;;;;;5053211;28;20017;-67
2022/04/09 00:17:38;;;;;;;5.45;4.30;;;5.40;86.90;;;;;;5025377;28;20029;-66
2022/04/09 00:20:05;;;;;;;9.95;4.35;;;5.40;87.70;;;;;;5038494;28;20431;-67
2022/04/09 00:22:31;;;;;;;7.38;4.85;;;5.50;87.80;;;;;;5068191;22;20371;31
2022/04/09 00:24:57;;;;;;;7.95;4.65;;;5.40;87.00;;;;;;5004175;28;20418;-68
2022/04/09 00:27:22;;;;;;;8.30;4.78;;;5.40;87.80;;;;;;4993455;28;20026;-69
2022/04/09 00:29:48;;;;;;;10.68;5.05;;;5.40;88.80;;;;;;5013586;28;20111;-69
2022/04/09 00:32:13;;;;;;;7.97;4.70;;;5.30;87.90;;;;;;5011617;28;20036;-69
2022/04/09 00:34:39;;;;;;;7.43;4.13;;;5.30;88.20;;;;;;4987141;28;20022;-69
2022/04/09 00:37:04;;;;;;;10.88;4.85;;;5.30;88.90;;;;;;5012952;28;20026;-69
2022/04/09 00:39:30;;;;;;;8.63;5.10;;;5.30;89.00;;;;;;5013216;28;20084;-69
2022/04/09 00:41:55;;;;;;;9.18;4.85;;;5.20;89.20;;;;;;5008008;28;20030;-69
2022/04/09 00:44:21;;;;;;;7.40;4.97;;;5.20;89.40;;;;;;5012820;28;20034;-68
2022/04/09 00:46:47;;;;;;;10.27;5.07;;;5.20;89.00;;;;;;5011906;28;20033;-68
2022/04/09 00:49:14;;;;;;;8.48;4.82;;;5.20;89.20;;;;;;5012862;28;20108;-68
2022/04/09 00:51:41;;;;;;;8.55;4.70;;;5.20;89.10;;;;;;5011291;28;20014;-68
2022/04/09 00:54:08;;;;;;;8.25;4.95;;;5.20;89.20;;;;;;5010456;28;20026;-68
2022/04/09 00:56:35;;;;;;;7.82;5.07;;;5.20;89.50;;;;;;5013001;28;20117;-68
2022/04/09 00:59:03;;;;;;;8.88;4.60;;;5.10;88.70;;;;;;5012350;28;20478;-68
2022/04/09 01:01:32;;;;;;;7.53;4.50;;;5.10;88.90;;;;;;5010446;28;20026;-69
2022/04/09 01:03:58;;;;;;;7.70;4.43;;;5.20;89.30;;;;;;4999861;28;20034;-69
2022/04/09 01:06:24;;;;;;;8.40;4.22;;;5.20;89.30;;;;;;5010591;28;20092;-67
2022/04/09 01:08:51;;;;;;;7.40;4.00;;;5.10;88.90;;;;;;5013346;28;20136;-68
2022/04/09 01:11:16;;;;;;;6.55;3.85;;;5.20;88.90;;;;;;5012264;28;20084;-68
2022/04/09 01:13:44;;;;;;;8.05;3.78;;;5.20;88.50;;;;;;5011894;28;20073;-68
2022/04/09 01:16:10;;;;;;;6.30;3.50;;;5.10;88.60;;;;;;5009803;28;20014;-67
2022/04/09 01:18:36;;;;;;;10.10;4.38;;;5.10;88.40;;;;;;5004988;28;20022;-68
2022/04/09 01:21:03;;;;;;;6.72;3.38;;;5.10;88.20;;;;;;5009502;28;20108;-68
2022/04/09 01:23:30;;;;;;;8.25;3.60;;;5.10;88.80;;;;;;4994398;28;20545;-69
2022/04/09 01:25:58;;;;;;;10.63;3.50;;;5.10;89.00;;;;;;4995105;28;20453;-69
2022/04/09 01:28:24;;;;;;;6.45;3.60;;;5.10;88.40;;;;;;5012094;28;20056;-67
2022/04/09 01:30:50;;;;;;;7.50;3.67;;;5.00;88.90;;;;;;5010950;28;20030;-67
2022/04/09 01:33:20;;;;;;;8.05;3.80;;;5.00;89.00;;;;;;5011327;28;20618;-67
2022/04/09 01:35:47;;;;;;;5.97;3.53;;;5.00;89.00;;;;;;4985525;28;20029;-68
2022/04/09 01:38:13;;;;;;;13.05;3.80;;;5.00;88.90;;;;;;5011643;28;20490;-68
2022/04/09 01:40:39;;;;;;;9.50;3.40;;;5.00;88.30;;;;;;5011735;28;20122;-70
2022/04/09 01:43:05;;;;;;;8.23;3.50;;;5.00;89.50;;;;;;5010877;28;20061;-68
2022/04/09 01:45:31;;;;;;;9.50;3.42;;;4.90;89.60;;;;;;5009622;28;20109;-68
2022/04/09 01:47:58;;;;;;;7.45;3.17;;;4.90;89.30;;;;;;5002907;28;20117;-67
2022/04/09 01:50:26;;;;;;;8.00;3.28;;;4.90;89.50;;;;;;5011653;28;20069;-68
2022/04/09 01:52:54;;;;;;;6.53;3.20;;;4.90;89.50;;;;;;5010859;28;20185;-68
2022/04/09 01:55:20;;;;;;;9.80;3.50;;;4.90;89.80;;;;;;5010872;28;20034;-68
2022/04/09 01:57:47;;;;;;;8.10;3.40;;;4.90;89.70;;;;;;5010808;28;20029;-68
2022/04/09 02:00:15;;;;;;;8.20;2.83;;;4.90;89.40;;;;;;5010864;28;20044;-68
2022/04/09 02:02:41;;;;;;;6.40;3.15;;;4.90;89.60;;;;;;5005471;28;20470;-68
2022/04/09 02:05:07;;;;;;;6.93;3.03;;;4.80;89.80;;;;;;5010798;28;20430;-68
2022/04/09 02:07:35;;;;;;;5.22;3.50;;;4.80;89.80;;;;;;5011123;28;20033;-68
2022/04/09 02:10:00;;;;;;;6.05;3.28;;;4.80;89.90;;;;;;4994145;28;20029;-69
2022/04/09 02:12:26;;;;;;;6.65;3.47;;;4.90;90.10;;;;;;5009382;28;20060;-68
2022/04/09 02:14:51;;;;;;;11.82;3.55;;;4.80;90.30;;;;;;5010864;28;20038;-69
2022/04/09 02:17:17;;;;;;;8.05;3.55;;;4.80;90.10;;;;;;4993040;28;20045;-68
2022/04/09 02:19:42;;;;;;;8.43;3.20;;;4.80;90.40;;;;;;5011432;28;20454;-68
2022/04/09 02:22:08;;;;;;;7.25;3.53;;;4.70;90.20;;;;;;5002562;28;20046;-68
2022/04/09 02:24:33;;;;;;;9.02;3.80;;;4.70;90.50;;;;;;5009769;28;20033;-67
2022/04/09 02:26:59;;;;;;;8.00;3.10;;;4.70;90.40;;;;;;5010488;28;20506;-68
2022/04/09 02:29:25;;;;;;;6.68;3.25;;;4.80;90.80;;;;;;5010898;28;20030;-68
2022/04/09 02:31:50;;;;;;;9.02;3.63;;;4.70;90.70;;;;;;5004451;28;20042;-67
2022/04/09 02:34:16;;;;;;;6.88;3.63;;;4.70;90.70;;;;;;4990897;28;20496;-68
2022/04/09 02:36:42;;;;;;;9.90;3.90;;;4.70;90.80;;;;;;5011439;28;20022;-68
2022/04/09 02:39:08;;;;;;;8.57;3.90;;;4.70;90.80;;;;;;5010566;28;20406;-68
2022/04/09 02:41:34;;;;;;;7.10;3.63;;;4.60;91.00;;;;;;5011180;28;20026;-67
2022/04/09 02:43:59;;;;;;;6.80;3.50;;;4.60;91.20;;;;;;4993802;28;20092;-68
2022/04/09 02:46:25;;;;;;;9.95;4.10;;;4.60;91.10;;;;;;5010480;28;20454;-68
2022/04/09 02:48:51;;;;;;;7.47;3.75;;;4.60;91.30;;;;;;5003401;28;20038;-68
2022/04/09 02:51:18;;;;;;;10.40;4.20;;;4.50;91.50;;;;;;5011379;28;20565;-67
2022/04/09 02:53:44;;;;;;;8.38;4.00;;;4.50;91.60;;;;;;5011503;28;20025;-68
2022/04/09 02:56:10;;;;;;;11.60;4.63;;;4.50;91.70;;;;;;5011918;28;20026;-68
2022/04/09 02:58:35;;;;;;;6.13;3.50;;;4.50;91.70;;;;;;5011614;28;20379;-68
2022/04/09 03:01:01;;;;;;;9.00;4.07;;;4.40;91.90;;;;;;5010579;28;20467;-67
2022/04/09 03:03:26;;;;;;;9.98;4.32;;;4.30;92.00;;;;;;5013320;28;20038;-67
2022/04/09 03:05:52;;;;;;;5.97;3.92;;;4.40;92.20;;;;;;5004698;28;20058;-67
2022/04/09 03:08:17;;;;;;;8.10;3.80;;;4.30;92.40;;;;;;5019285;28;20041;-69
2022/04/09 03:10:43;;;;;;;10.25;4.53;;;4.30;92.30;;;;;;5018077;28;20032;-68
2022/04/09 03:13:08;;;;;;;7.35;4.07;;;4.20;92.70;;;;;;5010053;28;20502;-67
2022/04/09 03:15:34;;;;;;;7.88;3.85;;;4.20;92.60;;;;;;5011290;28;20509;-68
2022/04/09 03:18:00;;;;;;;9.15;3.95;;;4.20;92.50;;;;;;4985371;28;20026;-67
2022/04/09 03:20:26;;;;;;;10.35;3.70;;;4.10;92.70;;;;;;5008317;28;20022;-67
2022/04/09 03:22:51;;;;;;;9.13;3.97;;;4.10;92.80;;;;;;5009438;28;20041;-67
2022/04/09 03:25:17;;;;;;;9.02;4.05;;;4.10;92.80;;;;;;5010772;28;20109;-68
2022/04/09 03:27:43;;;;;;;8.48;3.72;;;4.10;92.80;;;;;;5012109;28;20494;-67
2022/04/09 03:30:10;;;;;;;11.37;4.43;;;4.00;93.20;;;;;;5014407;28;20033;-67
2022/04/09 03:32:36;;;;;;;8.98;3.95;;;4.00;93.30;;;;;;5013543;28;20102;-67
2022/04/09 03:35:04;;;;;;;6.23;4.10;;;4.00;93.30;;;;;;5013290;28;20393;-69
2022/04/09 03:37:29;;;;;;;12.68;4.75;;;3.90;93.50;;;;;;4996527;28;20018;-68
2022/04/09 03:39:55;;;;;;;7.57;3.85;;;3.90;93.50;;;;;;5012441;28;20348;-68
2022/04/09 03:42:20;;;;;;;10.13;4.40;;;3.90;93.70;;;;;;5013038;28;20040;-67
2022/04/09 03:44:46;;;;;;;9.10;3.83;;;3.90;93.50;;;;;;5013757;28;20030;-68
2022/04/09 03:47:12;;;;;;;12.10;4.45;;;3.90;93.80;;;;;;5012197;28;20033;-67
2022/04/09 03:49:37;;;;;;;11.73;4.10;;;3.80;94.10;;;;;;5012552;28;20037;-68
2022/04/09 03:52:03;;;;;;;7.13;3.90;;;3.90;94.00;;;;;;4995607;28;20097;-68
2022/04/09 03:54:30;;;;;;;9.47;3.83;;;3.80;93.80;;;;;;5013213;28;20030;-68
2022/04/09 03:56:56;;;;;;;9.73;4.28;;;3.80;93.90;;;;;;5013753;28;20025;-68
2022/04/09 03:59:22;;;;;;;7.23;3.67;;;3.80;94.20;;;;;;5014187;28;20034;-68
2022/04/09 04:01:47;;;;;;;8.60;4.10;;;3.80;94.10;;;;;;5013060;28;20445;-68
2022/04/09 04:04:13;;;;;;;11.63;4.00;;;3.80;94.20;;;;;;4996126;28;20120;-68
2022/04/09 04:06:41;;;;;;;11.37;4.53;;;3.80;94.40;;;;;;5007082;28;20034;-68
2022/04/09 04:09:07;;;;;;;7.37;4.40;;;3.70;94.50;;;;;;5012456;28;20125;-68
2022/04/09 04:11:32;;;;;;;9.90;4.33;;;3.80;94.50;;;;;;5012804;28;20045;-68
2022/04/09 04:13:58;;;;;;;9.17;4.13;;;3.70;94.60;;;;;;5013230;28;20097;-68
2022/04/09 04:16:24;;;;;;;8.27;4.00;;;3.80;94.40;;;;;;5012514;28;20033;-67
2022/04/09 04:18:49;;;;;;;8.23;4.00;;;3.80;94.60;;;;;;4987417;28;20032;-68
2022/04/09 04:21:15;;;;;;;9.37;4.23;;;3.80;94.40;;;;;;5013181;28;20026;-68
2022/04/09 04:23:40;;;;;;;9.20;4.23;;;3.70;94.60;;;;;;5013152;28;20083;-67
2022/04/09 04:26:06;;;;;;;7.27;4.07;;;3.70;95.10;;;;;;5013079;28;20105;-68
2022/04/09 04:28:32;;;;;;;11.60;4.07;;;3.70;94.80;;;;;;5011820;28;20041;-69
2022/04/09 04:30:57;;;;;;;11.43;4.13;;;3.70;95.10;;;;;;4994377;28;20022;-69
2022/04/09 04:33:23;;;;;;;9.30;4.10;;;3.70;94.90;;;;;;5012969;28;20084;-69
2022/04/09 04:35:48;;;;;;;8.17;4.07;;;3.80;94.70;;;;;;4995105;28;20517;-69
2022/04/09 04:38:14;;;;;;;9.27;4.70;;;3.90;94.60;;;;;;5011375;28;20030;-69
2022/04/09 04:40:40;;;;;;;9.97;4.33;;;4.00;94.40;;;;;;5013059;28;20105;-69
2022/04/09 04:43:06;;;;;;;7.93;4.10;;;4.00;94.20;;;;;;5012275;28;20104;-66
2022/04/09 04:45:31;;;;;;;9.63;4.10;;;4.00;94.10;;;;;;5013021;28;20038;-69
2022/04/09 04:47:57;;;;;;;8.40;4.03;;;3.90;94.10;;;;;;5003733;28;20045;-69
2022/04/09 04:50:23;;;;;;;11.07;4.40;;;3.90;94.30;;;;;;5011748;28;20024;-69
2022/04/09 04:52:48;;;;;;;12.27;4.47;;;3.80;94.50;;;;;;5012034;28;20036;-67
2022/04/09 04:55:15;;;;;;;9.43;4.70;;;3.80;94.80;;;;;;5012102;28;20030;-67
2022/04/09 04:57:51;;;;;;;10.40;3.90;;;3.80;94.80;;;;;;5003231;28;20025;-67
2022/04/09 05:00:19;;;;;;;11.07;3.90;;;3.80;94.80;;;;;;5010844;28;20037;-68
2022/04/09 05:02:45;;;;;;;11.33;4.13;;;3.80;94.60;;;;;;5005318;28;20049;-67
2022/04/09 05:05:11;;;;;;;13.27;4.50;;;3.90;94.50;;;;;;5008812;28;20068;-68
2022/04/09 05:07:41;;;;;;;11.67;4.57;;;3.90;94.70;;;;;;5010794;28;20455;-67
2022/04/09 05:10:08;;;;;;;10.95;4.20;;;3.90;94.60;;;;;;5012420;28;20030;-67
2022/04/09 05:12:34;;;;;;;13.23;4.23;;;3.90;94.20;;;;;;5011996;28;20061;-67
2022/04/09 05:15:00;;;;;;;12.90;4.43;;;3.90;94.20;;;;;;5012572;28;20508;-67
2022/04/09 05:17:26;;;;;;;7.97;3.97;;;3.90;94.30;;;;;;4987591;28;20129;-67
2022/04/09 05:19:51;;;;;;;15.53;5.53;;;3.90;94.20;;;;;;5011882;28;20050;-67
2022/04/09 05:22:17;;;;;;;11.10;4.40;;;3.90;94.40;;;;;;4996432;28;20022;-69
2022/04/09 05:24:42;;;;;;;8.17;4.30;;;3.90;94.40;;;;;;5013984;28;20498;-69
2022/04/09 05:27:08;;;;;;;8.07;3.88;;;3.90;94.20;;;;;;5005405;28;20553;-68
2022/04/09 05:29:34;;;;;;;7.88;3.90;;;4.10;93.90;;;;;;5010168;28;20057;-70
2022/04/09 05:32:00;;;;;;;8.57;3.88;;;4.10;93.70;;;;;;5008397;28;20076;-70
2022/04/09 05:34:25;;;;;;;11.23;4.13;;;4.20;93.40;;;;;;4994317;28;20029;-68
2022/04/09 05:36:51;;;;;;;10.52;4.25;;;4.30;93.20;;;;;;5010824;28;20104;-68
2022/04/09 05:39:17;;;;;;;11.52;4.10;;;4.30;93.30;;;;;;5011012;28;20026;-70
2022/04/09 05:41:43;;;;;;;8.80;3.90;;;4.30;93.10;;;;;;5005841;28;20072;-68
2022/04/09 05:44:09;;;;;;;10.88;3.70;;;4.30;93.30;;;;;;5011904;28;20498;-67
2022/04/09 05:46:35;;;;;;;10.75;4.32;;;4.60;93.00;;;;;;5007777;28;20028;-70
2022/04/09 05:49:00;;;;;;;9.55;4.00;;;4.60;92.40;;;;;;5007546;28;20030;-69
2022/04/09 05:51:26;;;;;;;10.20;4.20;;;4.60;92.20;;;;;;5008434;28;20030;-69
2022/04/09 05:53:51;;;;;;;7.78;3.67;;;4.60;92.40;;;;;;5010323;28;20101;-66
2022/04/09 05:56:17;;;;;;;7.68;3.33;;;4.60;92.60;;;;;;5008822;28;20048;-66
2022/04/09 05:58:42;;;;;;;9.48;3.95;;;4.70;92.40;;;;;;5009256;28;20033;-67
2022/04/09 06:01:08;;;;;;;9.60;3.92;;;5.00;91.90;;;;;;5011746;28;20044;-67
2022/04/09 06:03:34;;;;;;;9.60;4.10;;;5.00;91.50;;;;;;5007035;28;20029;-66
2022/04/09 06:06:00;;;;;;;10.40;4.68;;;5.10;91.40;;;;;;5007127;28;20030;-68
2022/04/09 06:08:25;;;;;;;6.88;3.90;;;5.30;91.30;;;;;;4993328;28;20044;-68
2022/04/09 06:10:52;;;;;;;8.20;3.95;;;5.20;91.30;;;;;;5010248;28;20561;-68
2022/04/09 06:13:18;;;;;;;10.13;4.07;;;5.10;91.50;;;;;;5011439;28;20117;-69
2022/04/09 06:15:45;;;;;;;7.40;3.85;;;5.30;91.30;;;;;;5009264;28;20030;-68
2022/04/09 06:18:10;;;;;;;11.68;4.10;;;5.30;90.90;;;;;;5002776;28;20056;-67
2022/04/09 06:20:36;;;;;;;8.45;4.03;;;5.20;91.30;;;;;;5008000;28;20026;-67
2022/04/09 06:23:02;;;;;;;10.18;3.97;;;5.20;91.40;;;;;;5036355;22;20771;-68
2022/04/09 06:25:28;;;;;;;7.55;4.40;;;5.30;91.30;;;;;;5057306;28;20104;-67
2022/04/09 06:27:53;;;;;;;9.75;4.80;;;5.40;91.10;;;;;;5034121;28;20116;-66
2022/04/09 06:30:19;;;;;;;12.93;4.85;;;5.30;90.80;;;;;;5045399;28;20557;-66
2022/04/09 06:32:44;;;;;;;9.30;4.18;;;5.90;90.70;;;;;;5044038;28;20029;-71
2022/04/09 06:35:10;;;;;;;8.95;4.55;;;6.20;88.10;;;;;;5051886;28;20028;-69
2022/04/09 06:37:39;;;;;;;7.90;4.20;;;5.90;87.80;;;;;;5051767;28;20483;-70
2022/04/09 06:40:09;;;;;;;6.72;3.67;;;6.60;86.20;;;;;;5049702;28;20389;-69
2022/04/09 06:42:36;;;;;;;9.90;4.10;;;9.20;75.10;;;;;;5043561;28;20173;-67
2022/04/09 06:45:02;;;;;;;9.18;4.18;;;10.30;70.30;;;;;;5050486;28;20516;-66
2022/04/09 06:47:28;;;;;;;10.50;3.85;;;11.90;61.20;;;;;;5030479;28;20166;-67
2022/04/09 06:49:53;;;;;;;9.13;3.88;;;10.80;65.80;;;;;;5049766;28;20112;-68
2022/04/09 06:52:19;;;;;;;9.65;3.83;;;10.30;66.60;;;;;;5053751;28;20024;-71
2022/04/09 06:54:44;;;;;;;10.88;4.25;;;10.50;65.40;;;;;;5046658;28;20033;-67
2022/04/09 06:57:10;;;;;;;7.63;3.90;;;9.60;67.00;;;;;;5030743;28;20059;-70
2022/04/09 06:59:36;;;;;;;10.25;4.25;;;9.00;68.90;;;;;;5048846;28;20287;-72
2022/04/09 07:02:02;;;;;;;11.50;3.90;;;8.10;73.40;;;;;;5052065;28;20033;-72
2022/04/09 07:04:27;;;;;;;10.25;3.67;;;8.70;73.90;;;;;;5052472;28;20040;-72
2022/04/09 07:06:53;;;;;;;10.60;4.57;;;10.10;67.60;;;;;;5053462;28;20064;-66
2022/04/09 07:09:18;;;;;;;10.55;3.67;;;9.70;67.60;;;;;;5051670;28;20033;-67
2022/04/09 07:11:44;;;;;;;15.52;3.90;;;10.20;65.60;;;;;;5052794;28;20099;-68
